createdAt,value
2019-04-01T00:00:19.354Z,68.07
2019-04-01T00:02:45.286Z,67.88
2019-04-01T00:05:11.749Z,67.79
2019-04-01T00:07:37.875Z,67.53
2019-04-01T00:10:04.126Z,67.65
2019-04-01T00:12:30.263Z,67.28
2019-04-01T00:14:56.426Z,67.25
2019-04-01T00:17:22.560Z,67.02
2019-04-01T00:19:48.607Z,66.89
2019-04-01T00:22:14.732Z,66.71
2019-04-01T00:24:40.770Z,66.71
2019-04-01T00:27:06.899Z,66.64
2019-04-01T00:29:33.038Z,66.54
2019-04-01T00:31:59.165Z,66.67
2019-04-01T00:34:25.187Z,66.31
2019-04-01T00:36:51.306Z,66.07
2019-04-01T00:39:17.421Z,66.01
2019-04-01T00:44:29.789Z,65.24
2019-04-01T00:46:55.958Z,65.08
2019-04-01T00:49:21.996Z,64.92
2019-04-01T00:51:48.114Z,64.94
2019-04-01T00:54:14.234Z,65.03
2019-04-01T00:56:40.364Z,65.25
2019-04-01T00:59:06.485Z,64.87
2019-04-01T01:01:32.712Z,65.02
2019-04-01T01:03:58.739Z,64.74
2019-04-01T01:06:24.971Z,64.50
2019-04-01T01:08:51.104Z,64.56
2019-04-01T01:11:17.225Z,64.43
2019-04-01T01:13:43.365Z,64.48
2019-04-01T01:16:09.514Z,64.40
2019-04-01T01:18:35.632Z,64.41
2019-04-01T01:21:01.762Z,64.40
2019-04-01T01:23:27.789Z,64.47
2019-04-01T01:25:53.940Z,64.47
2019-04-01T01:28:19.964Z,64.47
2019-04-01T01:30:46.114Z,64.37
2019-04-01T01:33:12.251Z,64.37
2019-04-01T01:35:38.438Z,64.69
2019-04-01T01:38:04.595Z,64.42
2019-04-01T01:40:32.078Z,64.03
2019-04-01T01:42:58.247Z,63.88
2019-04-01T01:45:24.433Z,64.03
2019-04-01T01:47:50.548Z,64.28
2019-04-01T01:50:16.698Z,64.31
2019-04-01T01:52:44.241Z,64.16
2019-04-01T01:55:10.407Z,64.34
2019-04-01T01:57:36.723Z,64.32
2019-04-01T02:00:03.480Z,64.48
2019-04-01T02:02:29.496Z,64.78
2019-04-01T02:04:55.544Z,65.22
2019-04-01T02:07:21.587Z,64.91
2019-04-01T02:09:47.716Z,64.70
2019-04-01T02:12:13.927Z,64.75
2019-04-01T02:14:40.083Z,64.63
2019-04-01T02:17:06.229Z,64.69
2019-04-01T02:19:32.378Z,64.41
2019-04-01T02:21:58.433Z,64.42
2019-04-01T02:24:24.344Z,64.63
2019-04-01T02:26:50.409Z,64.66
2019-04-01T02:29:16.543Z,64.66
2019-04-01T02:31:42.603Z,65.08
2019-04-01T02:34:08.645Z,65.04
2019-04-01T02:36:34.673Z,65.03
2019-04-01T02:39:00.789Z,64.94
2019-04-01T02:41:26.821Z,64.95
2019-04-01T02:43:52.963Z,64.96
2019-04-01T02:46:19.078Z,64.92
2019-04-01T02:48:45.260Z,64.80
2019-04-01T02:51:11.385Z,64.84
2019-04-01T02:53:37.517Z,65.01
2019-04-01T02:56:03.704Z,65.26
2019-04-01T02:58:29.821Z,65.13
2019-04-01T03:00:55.969Z,64.68
2019-04-01T03:03:22.095Z,64.34
2019-04-01T03:05:48.341Z,64.15
2019-04-01T03:08:14.339Z,63.62
2019-04-01T03:10:44.826Z,64.15
2019-04-01T03:13:08.496Z,63.85
2019-04-01T03:15:34.651Z,64.14
2019-04-01T03:18:00.801Z,64.13
2019-04-01T03:20:26.936Z,64.36
2019-04-01T03:22:53.088Z,64.40
2019-04-01T03:25:19.218Z,64.31
2019-04-01T03:27:45.341Z,64.67
2019-04-01T03:30:11.599Z,64.71
2019-04-01T03:32:44.267Z,64.54
2019-04-01T03:35:05.886Z,64.29
2019-04-01T03:37:31.983Z,64.08
2019-04-01T03:39:58.118Z,64.00
2019-04-01T03:42:24.265Z,64.24
2019-04-01T03:44:54.826Z,64.01
2019-04-01T03:47:18.765Z,63.39
2019-04-01T03:49:44.990Z,63.10
2019-04-01T03:52:11.146Z,63.32
2019-04-01T03:54:37.300Z,63.26
2019-04-01T03:57:03.562Z,63.20
2019-04-01T03:59:29.701Z,63.23
2019-04-01T04:01:55.766Z,62.72
2019-04-01T04:04:21.890Z,63.08
2019-04-01T04:06:48.061Z,63.00
2019-04-01T04:09:14.069Z,62.97
2019-04-01T04:11:40.225Z,63.34
2019-04-01T04:14:06.257Z,63.28
2019-04-01T04:16:32.400Z,63.61
2019-04-01T04:18:58.530Z,63.58
2019-04-01T04:21:24.694Z,63.71
2019-04-01T04:23:50.833Z,63.74
2019-04-01T04:26:16.968Z,63.66
2019-04-01T04:28:43.027Z,63.63
2019-04-01T04:31:09.157Z,63.57
2019-04-01T04:33:35.291Z,63.41
2019-04-01T04:36:01.302Z,63.33
2019-04-01T04:38:27.486Z,63.19
2019-04-01T04:40:53.603Z,63.25
2019-04-01T04:43:19.810Z,63.24
2019-04-01T04:45:45.833Z,63.20
2019-04-01T04:48:11.965Z,63.16
2019-04-01T04:50:38.108Z,63.29
2019-04-01T04:53:04.355Z,63.62
2019-04-01T04:55:30.517Z,63.73
2019-04-01T04:57:56.649Z,63.76
2019-04-01T05:00:22.814Z,64.06
2019-04-01T05:02:49.013Z,64.28
2019-04-01T05:05:15.152Z,64.48
2019-04-01T05:07:41.169Z,64.55
2019-04-01T05:10:07.701Z,65.07
2019-04-01T05:12:33.834Z,65.11
2019-04-01T05:14:59.967Z,65.10
2019-04-01T05:17:26.230Z,65.53
2019-04-01T05:19:52.393Z,65.77
2019-04-01T05:22:20.437Z,66.10
2019-04-01T05:24:46.820Z,66.03
2019-04-01T05:27:13.755Z,66.00
2019-04-01T05:29:40.598Z,66.69
2019-04-01T05:32:10.316Z,66.90
2019-04-01T05:34:38.274Z,66.88
2019-04-01T05:37:04.552Z,67.12
2019-04-01T05:39:30.870Z,67.38
2019-04-01T05:41:57.034Z,67.27
2019-04-01T05:44:23.244Z,67.09
2019-04-01T05:46:49.441Z,67.19
2019-04-01T05:49:15.594Z,67.05
2019-04-01T05:51:41.838Z,66.63
2019-04-01T05:54:07.973Z,67.20
2019-04-01T05:56:34.297Z,67.52
2019-04-01T05:59:00.457Z,67.42
2019-04-01T06:01:28.516Z,67.64
2019-04-01T06:03:54.864Z,67.66
2019-04-01T06:06:23.448Z,67.29
2019-04-01T06:08:50.855Z,67.71
2019-04-01T06:11:17.027Z,67.28
2019-04-01T06:13:43.304Z,67.25
2019-04-01T06:16:09.633Z,67.27
2019-04-01T06:18:35.793Z,66.86
2019-04-01T06:21:01.976Z,66.73
2019-04-01T06:23:28.215Z,66.94
2019-04-01T06:25:54.521Z,66.67
2019-04-01T06:28:20.672Z,66.64
2019-04-01T06:30:48.253Z,66.25
2019-04-01T06:33:14.402Z,66.33
2019-04-01T06:35:41.916Z,66.04
2019-04-01T06:38:08.063Z,65.91
2019-04-01T06:40:34.217Z,65.30
2019-04-01T06:43:01.559Z,65.11
2019-04-01T06:45:27.747Z,64.96
2019-04-01T06:47:53.864Z,64.56
2019-04-01T06:50:20.124Z,64.36
2019-04-01T06:52:46.244Z,63.26
2019-04-01T06:55:12.472Z,62.79
2019-04-01T06:57:38.605Z,63.14
2019-04-01T07:00:04.748Z,62.65
2019-04-01T07:02:30.934Z,62.43
2019-04-01T07:04:57.075Z,62.11
2019-04-01T07:07:23.339Z,61.49
2019-04-01T07:09:50.751Z,61.05
2019-04-01T07:12:17.227Z,60.52
2019-04-01T07:14:43.450Z,60.73
2019-04-01T07:17:09.799Z,60.41
2019-04-01T07:19:35.934Z,59.64
2019-04-01T07:22:02.075Z,59.98
2019-04-01T07:24:28.229Z,59.41
2019-04-01T07:26:56.434Z,59.23
2019-04-01T07:29:23.051Z,59.71
2019-04-01T07:31:49.177Z,58.84
2019-04-01T07:34:15.299Z,58.75
2019-04-01T07:36:41.337Z,58.89
2019-04-01T07:39:07.459Z,59.13
2019-04-01T07:41:33.595Z,58.44
2019-04-01T07:44:01.136Z,58.33
2019-04-01T07:46:27.296Z,58.09
2019-04-01T07:48:53.444Z,57.48
2019-04-01T07:51:20.484Z,57.56
2019-04-01T07:53:46.615Z,57.22
2019-04-01T07:56:12.773Z,57.36
2019-04-01T07:58:38.930Z,56.42
2019-04-01T08:01:05.043Z,55.85
2019-04-01T08:03:32.855Z,55.93
2019-04-01T08:05:59.108Z,56.20
2019-04-01T08:08:25.264Z,55.16
2019-04-01T08:10:52.494Z,55.47
2019-04-01T08:13:18.625Z,55.46
2019-04-01T08:15:45.155Z,54.86
2019-04-01T08:18:11.296Z,54.85
2019-04-01T08:20:37.415Z,54.77
2019-04-01T08:23:03.597Z,54.73
2019-04-01T08:25:29.719Z,55.25
2019-04-01T08:27:55.830Z,54.76
2019-04-01T08:30:22.031Z,54.16
2019-04-01T08:32:48.155Z,54.14
2019-04-01T08:35:14.331Z,53.92
2019-04-01T08:37:40.874Z,54.49
2019-04-01T08:40:08.420Z,53.86
2019-04-01T08:42:34.539Z,53.94
2019-04-01T08:45:00.662Z,53.71
2019-04-01T08:47:26.814Z,53.22
2019-04-01T08:49:52.956Z,52.94
2019-04-01T08:52:21.254Z,53.19
2019-04-01T08:54:47.398Z,53.19
2019-04-01T08:57:14.157Z,52.98
2019-04-01T08:59:40.297Z,52.48
2019-04-01T09:02:17.014Z,52.96
2019-04-01T09:04:35.778Z,53.83
2019-04-01T09:07:02.061Z,52.68
2019-04-01T09:09:29.061Z,52.40
2019-04-01T09:11:56.332Z,52.08
2019-04-01T09:14:22.477Z,52.44
2019-04-01T09:16:48.910Z,52.14
2019-04-01T09:19:15.036Z,50.90
2019-04-01T09:21:41.233Z,51.22
2019-04-01T09:24:07.415Z,50.51
2019-04-01T09:26:33.533Z,50.41
2019-04-01T09:28:59.714Z,49.98
2019-04-01T09:31:25.855Z,50.50
2019-04-01T09:33:51.911Z,50.57
2019-04-01T09:36:18.152Z,50.55
2019-04-01T09:38:44.301Z,50.03
2019-04-01T09:41:13.322Z,50.03
2019-04-01T09:43:38.436Z,50.31
2019-04-01T09:46:04.567Z,49.91
2019-04-01T09:48:31.268Z,48.34
2019-04-01T09:50:57.399Z,49.09
2019-04-01T09:53:23.519Z,49.27
2019-04-01T09:55:49.544Z,49.62
2019-04-01T09:58:15.702Z,49.03
2019-04-01T10:00:41.945Z,49.42
2019-04-01T10:03:08.109Z,48.61
2019-04-01T10:05:34.231Z,48.57
2019-04-01T10:08:00.378Z,47.80
2019-04-01T10:10:26.505Z,48.64
2019-04-01T10:12:52.633Z,48.05
2019-04-01T10:15:18.754Z,48.04
2019-04-01T10:17:44.944Z,46.35
2019-04-01T10:20:11.194Z,46.60
2019-04-01T10:22:37.344Z,47.41
2019-04-01T10:25:05.177Z,47.50
2019-04-01T10:27:31.505Z,46.64
2019-04-01T10:29:58.638Z,45.78
2019-04-01T10:32:24.745Z,46.42
2019-04-01T10:34:50.989Z,46.16
2019-04-01T10:37:17.022Z,45.78
2019-04-01T10:39:43.140Z,45.59
2019-04-01T10:42:09.255Z,46.34
2019-04-01T10:44:35.414Z,46.05
2019-04-01T10:47:01.860Z,45.96
2019-04-01T10:49:28.226Z,46.15
2019-04-01T10:51:54.218Z,45.73
2019-04-01T10:54:20.413Z,45.08
2019-04-01T10:56:46.616Z,45.18
2019-04-01T10:59:12.835Z,44.92
2019-04-01T11:01:41.603Z,44.33
2019-04-01T11:04:07.972Z,45.34
2019-04-01T11:06:34.307Z,45.54
2019-04-01T11:09:00.529Z,45.00
2019-04-01T11:11:27.342Z,44.88
2019-04-01T11:13:54.077Z,44.20
2019-04-01T11:16:20.554Z,43.28
2019-04-01T11:18:46.818Z,42.94
2019-04-01T11:21:13.023Z,42.67
2019-04-01T11:23:39.594Z,41.72
2019-04-01T11:26:05.721Z,42.40
2019-04-01T11:28:31.829Z,42.44
2019-04-01T11:30:58.002Z,42.10
2019-04-01T11:33:24.464Z,41.94
2019-04-01T11:35:50.639Z,42.51
2019-04-01T11:38:16.682Z,42.06
2019-04-01T11:40:43.995Z,42.33
2019-04-01T11:43:10.209Z,40.79
2019-04-01T11:45:36.360Z,40.30
2019-04-01T11:48:02.496Z,39.24
2019-04-01T11:50:28.759Z,39.27
2019-04-01T11:52:54.898Z,39.82
2019-04-01T11:55:25.123Z,40.00
2019-04-01T11:57:49.071Z,40.57
2019-04-01T12:00:17.032Z,40.36
2019-04-01T12:02:43.203Z,40.07
2019-04-01T12:05:09.510Z,39.58
2019-04-01T12:07:35.672Z,39.54
2019-04-01T12:10:02.124Z,39.48
2019-04-01T12:12:28.340Z,39.92
2019-04-01T12:14:54.999Z,40.68
2019-04-01T12:17:21.140Z,41.03
2019-04-01T12:19:57.199Z,40.46
2019-04-01T12:22:23.386Z,41.14
2019-04-01T12:24:49.635Z,39.65
2019-04-01T12:27:16.344Z,40.23
2019-04-01T12:29:42.731Z,39.94
2019-04-01T12:32:08.867Z,38.74
2019-04-01T12:34:34.885Z,38.91
2019-04-01T12:37:01.036Z,39.69
2019-04-01T12:39:27.178Z,39.71
2019-04-01T12:41:53.305Z,40.50
2019-04-01T12:44:19.449Z,39.64
2019-04-01T12:46:45.661Z,39.13
2019-04-01T12:49:11.783Z,38.91
2019-04-01T12:51:40.666Z,38.93
2019-04-01T12:54:07.014Z,38.44
2019-04-01T12:56:33.140Z,37.55
2019-04-01T12:58:59.378Z,38.80
2019-04-01T13:01:25.546Z,38.57
2019-04-01T13:03:51.791Z,38.56
2019-04-01T13:06:20.584Z,38.10
2019-04-01T13:08:47.801Z,38.57
2019-04-01T13:11:13.945Z,38.47
2019-04-01T13:13:40.095Z,38.95
2019-04-01T13:16:09.013Z,37.86
2019-04-01T13:18:34.257Z,38.47
2019-04-01T13:21:00.406Z,38.34
2019-04-01T13:23:40.039Z,39.12
2019-04-01T13:26:03.578Z,39.06
2019-04-01T13:28:29.801Z,37.06
2019-04-01T13:30:55.931Z,37.45
2019-04-01T13:33:22.261Z,37.13
2019-04-01T13:35:48.533Z,37.19
2019-04-01T13:38:16.480Z,37.35
2019-04-01T13:40:44.201Z,38.08
2019-04-01T13:43:11.465Z,38.31
2019-04-01T13:45:38.641Z,38.34
2019-04-01T13:48:05.020Z,37.85
2019-04-01T13:50:31.746Z,37.38
2019-04-01T13:52:58.639Z,36.40
2019-04-01T13:55:24.915Z,36.65
2019-04-01T13:57:52.412Z,37.55
2019-04-01T14:00:20.278Z,37.48
2019-04-01T14:02:46.639Z,37.91
2019-04-01T14:05:13.392Z,37.36
2019-04-01T14:07:40.612Z,37.27
2019-04-01T14:10:06.834Z,36.59
2019-04-01T14:12:32.985Z,35.30
2019-04-01T14:14:59.149Z,36.92
2019-04-01T14:17:25.296Z,37.26
2019-04-01T14:19:51.409Z,37.74
2019-04-01T14:22:17.570Z,38.17
2019-04-01T14:24:45.209Z,37.92
2019-04-01T14:27:12.045Z,37.32
2019-04-01T14:29:38.159Z,37.10
2019-04-01T14:32:04.528Z,37.34
2019-04-01T14:34:31.136Z,37.26
2019-04-01T14:36:57.262Z,36.51
2019-04-01T14:39:23.434Z,37.26
2019-04-01T14:41:49.704Z,37.18
2019-04-01T14:44:15.838Z,36.30
2019-04-01T14:46:43.039Z,36.37
2019-04-01T14:49:11.420Z,36.08
2019-04-01T14:51:37.558Z,35.89
2019-04-01T14:54:03.697Z,35.96
2019-04-01T14:56:29.860Z,36.38
2019-04-01T14:58:55.980Z,35.98
2019-04-01T15:01:22.233Z,36.68
2019-04-01T15:03:48.264Z,36.36
2019-04-01T15:06:14.421Z,35.97
2019-04-01T15:08:40.655Z,35.17
2019-04-01T15:11:12.322Z,34.91
2019-04-01T15:13:39.277Z,34.36
2019-04-01T15:16:05.719Z,34.53
2019-04-01T15:18:34.326Z,34.88
2019-04-01T15:21:00.098Z,35.54
2019-04-01T15:23:27.433Z,35.38
2019-04-01T15:25:54.511Z,35.39
2019-04-01T15:28:20.829Z,35.07
2019-04-01T15:30:47.036Z,35.05
2019-04-01T15:33:13.160Z,35.92
2019-04-01T15:35:39.277Z,35.06
2019-04-01T15:38:05.431Z,35.47
2019-04-01T15:40:57.993Z,35.50
2019-04-01T15:43:22.471Z,35.02
2019-04-01T15:45:48.683Z,35.16
2019-04-01T15:48:14.912Z,34.33
2019-04-01T15:50:41.159Z,34.51
2019-04-01T15:53:07.292Z,35.14
2019-04-01T15:55:33.473Z,35.16
2019-04-01T15:57:59.718Z,35.61
2019-04-01T16:00:25.943Z,35.61
2019-04-01T16:02:52.086Z,35.66
2019-04-01T16:05:18.257Z,35.59
2019-04-01T16:07:44.394Z,35.74
2019-04-01T16:10:11.061Z,35.68
2019-04-01T16:12:37.221Z,36.07
2019-04-01T16:15:27.801Z,35.86
2019-04-01T16:17:54.160Z,35.60
2019-04-01T16:20:20.488Z,35.67
2019-04-01T16:22:46.822Z,35.64
2019-04-01T16:25:13.497Z,35.92
2019-04-01T16:27:42.820Z,36.17
2019-04-01T16:30:09.326Z,36.61
2019-04-01T16:32:36.252Z,36.73
2019-04-01T16:35:04.216Z,36.74
2019-04-01T16:37:30.465Z,36.68
2019-04-01T16:39:58.399Z,37.16
2019-04-01T16:42:24.543Z,37.50
2019-04-01T16:44:53.974Z,37.58
2019-04-01T16:47:18.837Z,37.01
2019-04-01T16:49:45.086Z,37.18
2019-04-01T16:52:11.537Z,37.69
2019-04-01T16:54:38.126Z,37.82
2019-04-01T16:57:06.172Z,38.31
2019-04-01T16:59:32.555Z,38.70
2019-04-01T17:01:58.813Z,38.77
2019-04-01T17:04:25.053Z,38.89
2019-04-01T17:06:53.199Z,38.28
2019-04-01T17:09:19.459Z,38.25
2019-04-01T17:11:45.696Z,38.70
2019-04-01T17:14:11.945Z,39.21
2019-04-01T17:16:38.617Z,39.69
2019-04-01T17:19:04.805Z,39.86
2019-04-01T17:21:31.066Z,39.73
2019-04-01T17:23:58.404Z,39.91
2019-04-01T17:26:25.516Z,40.20
2019-04-01T17:28:51.768Z,40.40
2019-04-01T17:31:18.004Z,40.11
2019-04-01T17:33:44.264Z,39.89
2019-04-01T17:36:11.165Z,40.24
2019-04-01T17:38:37.666Z,40.75
2019-04-01T17:41:04.190Z,41.09
2019-04-01T17:43:32.252Z,41.32
2019-04-01T17:45:58.499Z,41.42
2019-04-01T17:48:24.664Z,41.83
2019-04-01T17:50:50.824Z,42.34
2019-04-01T17:53:17.068Z,42.93
2019-04-01T17:55:45.528Z,43.10
2019-04-01T17:58:11.495Z,43.20
2019-04-01T18:00:39.575Z,43.14
2019-04-01T18:03:09.189Z,43.32
2019-04-01T18:05:33.843Z,43.44
2019-04-01T18:08:00.004Z,43.65
2019-04-01T18:10:28.042Z,43.67
2019-04-01T18:12:54.643Z,43.82
2019-04-01T18:15:20.854Z,43.99
2019-04-01T18:17:47.155Z,44.45
2019-04-01T18:20:13.393Z,44.77
2019-04-01T18:22:39.632Z,44.85
2019-04-01T18:25:06.255Z,45.06
2019-04-01T18:27:32.375Z,44.98
2019-04-01T18:30:00.352Z,45.15
2019-04-01T18:32:26.674Z,45.14
2019-04-01T18:34:52.910Z,45.32
2019-04-01T18:37:19.182Z,45.45
2019-04-01T18:39:48.470Z,45.37
2019-04-01T18:42:13.588Z,45.71
2019-04-01T18:44:39.811Z,45.84
2019-04-01T18:47:06.003Z,46.19
2019-04-01T18:49:32.275Z,46.23
2019-04-01T18:51:58.575Z,46.54
2019-04-01T18:54:24.902Z,46.66
2019-04-01T18:56:51.137Z,46.78
2019-04-01T18:59:17.382Z,47.13
2019-04-01T19:01:44.208Z,47.36
2019-04-01T19:04:11.931Z,47.58
2019-04-01T19:06:38.230Z,47.48
2019-04-01T19:09:09.354Z,47.68
2019-04-01T19:11:34.858Z,47.91
2019-04-01T19:14:01.271Z,48.01
2019-04-01T19:16:27.554Z,48.38
2019-04-01T19:18:53.675Z,48.70
2019-04-01T19:21:19.847Z,48.68
2019-04-01T19:23:46.082Z,48.95
2019-04-01T19:26:12.224Z,49.08
2019-04-01T19:28:38.414Z,49.17
2019-04-01T19:31:04.554Z,49.46
2019-04-01T19:33:30.714Z,49.78
2019-04-01T19:35:56.860Z,50.04
2019-04-01T19:38:22.998Z,50.71
2019-04-01T19:40:49.168Z,50.58
2019-04-01T19:43:16.351Z,50.38
2019-04-01T19:45:43.181Z,50.54
2019-04-01T19:48:09.317Z,51.11
2019-04-01T19:50:35.471Z,51.02
2019-04-01T19:53:03.681Z,51.07
2019-04-01T19:55:30.075Z,51.32
2019-04-01T19:57:58.333Z,51.31
2019-04-01T20:00:27.936Z,51.44
2019-04-01T20:02:52.958Z,51.85
2019-04-01T20:05:20.185Z,51.97
2019-04-01T20:07:53.242Z,52.08
2019-04-01T20:10:19.536Z,52.02
2019-04-01T20:12:50.691Z,52.14
2019-04-01T20:15:21.042Z,52.61
2019-04-01T20:17:47.491Z,52.65
2019-04-01T20:20:14.857Z,52.97
2019-04-01T20:22:41.318Z,52.86
2019-04-01T20:25:10.928Z,52.90
2019-04-01T20:27:39.277Z,53.15
2019-04-01T20:30:09.120Z,53.28
2019-04-01T20:32:35.492Z,53.68
2019-04-01T20:35:01.627Z,53.62
2019-04-01T20:37:29.111Z,53.73
2019-04-01T20:39:55.641Z,53.68
2019-04-01T20:42:21.885Z,53.61
2019-04-01T20:44:48.019Z,53.60
2019-04-01T20:47:14.174Z,53.67
2019-04-01T20:49:40.319Z,53.97
2019-04-01T20:52:06.451Z,53.98
2019-04-01T20:54:32.617Z,54.02
2019-04-01T20:56:58.776Z,54.41
2019-04-01T20:59:24.932Z,54.45
2019-04-01T21:01:51.066Z,54.65
2019-04-01T21:04:17.106Z,54.66
2019-04-01T21:06:43.226Z,54.79
2019-04-01T21:09:09.454Z,55.28
2019-04-01T21:11:35.611Z,55.20
2019-04-01T21:14:03.094Z,55.28
2019-04-01T21:16:29.381Z,55.36
2019-04-01T21:18:55.514Z,55.28
2019-04-01T21:21:21.708Z,55.52
2019-04-01T21:23:47.843Z,55.55
2019-04-01T21:26:14.022Z,55.90
2019-04-01T21:28:40.155Z,56.16
2019-04-01T21:31:06.355Z,56.13
2019-04-01T21:33:32.588Z,56.03
2019-04-01T21:35:58.719Z,56.07
2019-04-01T21:38:24.862Z,56.11
2019-04-01T21:40:50.989Z,56.12
2019-04-01T21:43:17.227Z,56.08
2019-04-01T21:45:44.925Z,56.12
2019-04-01T21:48:11.243Z,56.51
2019-04-01T21:50:37.472Z,56.58
2019-04-01T21:53:03.607Z,56.43
2019-04-01T21:55:29.743Z,56.44
2019-04-01T21:57:55.876Z,56.70
2019-04-01T22:00:44.956Z,56.77
2019-04-01T22:03:12.306Z,57.16
2019-04-01T22:05:39.348Z,57.35
2019-04-01T22:08:06.276Z,56.93
2019-04-01T22:10:33.354Z,56.73
2019-04-01T22:12:59.486Z,56.78
2019-04-01T22:15:25.622Z,56.95
2019-04-01T22:17:51.778Z,57.00
2019-04-01T22:20:17.915Z,56.89
2019-04-01T22:22:44.169Z,56.79
2019-04-01T22:25:10.338Z,56.96
2019-04-01T22:27:36.470Z,56.99
2019-04-01T22:30:05.988Z,57.00
2019-04-01T22:32:32.122Z,57.04
2019-04-01T22:34:58.265Z,57.16
2019-04-01T22:37:27.360Z,57.29
2019-04-01T22:39:52.548Z,57.21
2019-04-01T22:42:18.723Z,57.35
2019-04-01T22:44:44.844Z,57.25
2019-04-01T22:47:11.008Z,57.27
2019-04-01T22:49:37.157Z,57.35
2019-04-01T22:52:03.273Z,57.24
2019-04-01T22:54:30.218Z,57.11
2019-04-01T22:56:57.295Z,57.13
2019-04-01T22:59:23.578Z,57.14
2019-04-01T23:01:50.016Z,57.38
2019-04-01T23:04:16.165Z,57.35
2019-04-01T23:06:42.327Z,57.47
2019-04-01T23:09:08.448Z,57.45
2019-04-01T23:11:34.678Z,57.36
2019-04-01T23:14:00.734Z,57.96
2019-04-01T23:16:27.221Z,58.04
2019-04-01T23:18:53.361Z,58.04
2019-04-01T23:21:19.519Z,58.43
2019-04-01T23:23:45.578Z,58.21
2019-04-01T23:26:11.619Z,58.15
2019-04-01T23:28:37.828Z,58.48
2019-04-01T23:31:04.067Z,58.66
2019-04-01T23:33:30.222Z,59.03
2019-04-01T23:35:56.507Z,59.08
2019-04-01T23:38:22.630Z,59.25
2019-04-01T23:40:49.681Z,59.17
2019-04-01T23:43:15.844Z,58.87
2019-04-01T23:45:41.983Z,58.70
2019-04-01T23:48:08.124Z,58.53
2019-04-01T23:50:34.286Z,58.50
2019-04-01T23:56:03.651Z,58.63
2019-04-01T23:58:29.911Z,58.35
